This is the latest recevied weather packets stored in our database for station/object YO8SDE-8. If no packets are shown the sender has not sent any weather packets the latest 10 day(s).
| Time | Temp. | Humidity | Pressure | Rain* | Wind** | Luminosity | Snow |
|---|---|---|---|---|---|---|---|
| 1776892633 | 7.22° C | 59% | 1002.8 hPa | 0 mm | - | - | - |
| 1776892333 | 7.22° C | 61% | 1002.8 hPa | 0 mm | - | - | - |
| 1776892033 | 7.22° C | 61% | 1002.8 hPa | 0 mm | - | - | - |
| 1776891733 | 6.67° C | 63% | 1002.7 hPa | 0 mm | - | - | - |
| 1776891433 | 6.67° C | 63% | 1002.9 hPa | 0 mm | - | - | - |
| 1776891133 | 6.67° C | 64% | 1002.9 hPa | 0 mm | - | - | - |
| 1776890833 | 6.67° C | 64% | 1003 hPa | 0 mm | - | - | - |
| 1776890533 | 6.67° C | 65% | 1002.9 hPa | 0 mm | - | - | - |
| 1776890233 | 6.11° C | 65% | 1002.9 hPa | 0 mm | - | - | - |
| 1776889933 | 6.11° C | 66% | 1002.9 hPa | 0 mm | - | - | - |
| 1776889633 | 6.11° C | 67% | 1003 hPa | 0 mm | - | - | - |
| 1776889333 | 6.11° C | 66% | 1003 hPa | 0 mm | - | - | - |
| 1776889033 | 6.11° C | 64% | 1003 hPa | 0 mm | - | - | - |
| 1776888733 | 5.56° C | 63% | 1002.9 hPa | 0 mm | - | - | - |
| 1776888433 | 5.56° C | 63% | 1003 hPa | 0 mm | - | - | - |
| 1776888133 | 6.11° C | 63% | 1003 hPa | 0 mm | - | - | - |
| 1776887833 | 6.11° C | 63% | 1003 hPa | 0 mm | - | - | - |
| 1776887533 | 6.67° C | 62% | 1003.1 hPa | 0 mm | - | - | - |
| 1776887233 | 6.67° C | 62% | 1003.2 hPa | 0 mm | - | - | - |
| 1776886933 | 6.67° C | 62% | 1003.2 hPa | 0 mm | - | - | - |
| 1776886633 | 7.22° C | 62% | 1003.3 hPa | 0 mm | - | - | - |
| 1776886333 | 7.22° C | 61% | 1003.3 hPa | 0 mm | - | - | - |
| 1776886033 | 7.78° C | 60% | 1003.4 hPa | 0 mm | - | - | - |
| 1776885733 | 7.78° C | 60% | 1003.4 hPa | 0 mm | - | - | - |
| 1776885433 | 7.78° C | 61% | 1003.5 hPa | 0 mm | - | - | - |
* Rain latest hour (hover to see other rain measurements)
** Current wind speed in m/s (hover to see current wind gust speed)